Time;durP1;ratioP1;P1;durP2;ratioP2;P2;SDS_P1;SDS_P2;PMS_P1;PMS_P2;Temp;Humidity;BMP_temperature;BMP_pressure;BME280_temperature;BME280_humidity;BME280_pressure;Samples;Min_cycle;Max_cycle;Signal;HPM_P1;HPM_P2
2023/05/20 00:01:59;;;;;;;2.17;1.90;;;11.40;1.00;;;;;;6145174;23;20159;-81
2023/05/20 00:04:25;;;;;;;3.20;2.00;;;11.40;1.00;;;;;;6145891;23;20179;-81
2023/05/20 00:06:50;;;;;;;3.70;2.03;;;11.30;1.00;;;;;;6145262;23;20152;-81
2023/05/20 00:09:16;;;;;;;2.23;1.90;;;11.30;1.00;;;;;;6118765;23;20785;-81
2023/05/20 00:11:41;;;;;;;3.63;2.20;;;11.30;1.00;;;;;;6118779;23;20501;-81
2023/05/20 00:14:07;;;;;;;3.93;2.70;;;11.40;1.00;;;;;;6145488;23;20163;-81
2023/05/20 00:16:33;;;;;;;4.20;2.20;;;11.40;1.00;;;;;;6145555;23;20167;-81
2023/05/20 00:18:58;;;;;;;2.97;2.30;;;11.50;1.00;;;;;;6119074;23;20776;-84
2023/05/20 00:21:24;;;;;;;2.20;2.00;;;11.50;1.00;;;;;;6145426;23;20695;-83
2023/05/20 00:23:50;;;;;;;2.73;2.07;;;11.60;1.00;;;;;;6145564;23;20238;-81
2023/05/20 00:26:16;;;;;;;2.53;1.80;;;11.60;1.00;;;;;;6144761;23;20626;-82
2023/05/20 00:28:41;;;;;;;2.30;1.80;;;11.70;1.00;;;;;;6118634;23;20533;-80
2023/05/20 00:31:07;;;;;;;2.10;1.80;;;11.70;1.00;;;;;;6118947;23;20802;-83
2023/05/20 00:33:33;;;;;;;3.37;2.00;;;11.80;1.00;;;;;;6118404;23;20167;-81
2023/05/20 00:35:59;;;;;;;3.43;2.00;;;11.80;1.00;;;;;;6118554;23;20163;-82
2023/05/20 00:38:24;;;;;;;2.97;2.03;;;11.80;1.00;;;;;;6118299;23;20206;-81
2023/05/20 00:40:50;;;;;;;2.10;1.90;;;11.90;1.00;;;;;;6120239;23;20214;-81
2023/05/20 00:43:16;;;;;;;2.83;2.10;;;11.90;1.00;;;;;;6120307;23;20170;-81
2023/05/20 00:45:41;;;;;;;4.53;2.20;;;11.90;1.00;;;;;;6146776;23;20166;-82
2023/05/20 00:48:08;;;;;;;2.80;1.90;;;11.90;1.00;;;;;;6120244;23;20198;-81
2023/05/20 00:50:34;;;;;;;3.77;2.30;;;12.00;1.00;;;;;;6120482;23;20578;-81
2023/05/20 00:53:00;;;;;;;3.80;2.00;;;12.00;1.00;;;;;;6146309;23;20167;-82
2023/05/20 00:55:26;;;;;;;2.10;1.90;;;11.90;1.00;;;;;;6146711;23;20175;-81
2023/05/20 00:57:52;;;;;;;2.73;2.43;;;11.90;1.00;;;;;;6120225;23;20163;-81
2023/05/20 01:00:17;;;;;;;3.40;2.40;;;11.90;1.00;;;;;;6146615;23;20179;-83
2023/05/20 01:02:43;;;;;;;4.23;2.30;;;11.90;1.00;;;;;;6147147;23;20614;-81
2023/05/20 01:05:09;;;;;;;3.87;2.03;;;11.90;1.00;;;;;;6146272;23;20527;-81
2023/05/20 01:07:35;;;;;;;3.13;2.20;;;11.90;1.00;;;;;;6146684;23;20152;-81
2023/05/20 01:10:01;;;;;;;4.15;2.80;;;11.90;1.00;;;;;;6146553;23;20175;-81
2023/05/20 01:12:30;;;;;;;4.40;2.47;;;11.90;1.00;;;;;;6120212;23;20164;-81
2023/05/20 01:15:06;;;;;;;3.58;2.42;;;11.90;1.00;;;;;;6146082;23;20175;-81
2023/05/20 01:17:36;;;;;;;3.20;2.50;;;11.90;1.00;;;;;;6119679;23;20186;-81
2023/05/20 01:20:04;;;;;;;3.83;2.30;;;11.90;1.00;;;;;;6120045;23;20242;-81
2023/05/20 01:22:30;;;;;;;3.47;2.50;;;11.80;1.00;;;;;;6146365;23;20182;-81
2023/05/20 01:24:56;;;;;;;2.97;2.33;;;11.90;1.00;;;;;;6119973;23;20537;-81
2023/05/20 01:27:22;;;;;;;3.63;2.47;;;11.80;1.00;;;;;;6145623;23;20222;-81
2023/05/20 01:29:49;;;;;;;2.87;2.50;;;11.80;1.00;;;;;;6146414;23;20182;-81
2023/05/20 01:32:23;;;;;;;3.40;2.40;;;11.90;1.00;;;;;;6146339;23;20634;-81
2023/05/20 01:34:51;;;;;;;4.03;2.77;;;11.90;1.00;;;;;;6120274;23;20210;-80
2023/05/20 01:37:18;;;;;;;4.30;2.50;;;11.90;1.00;;;;;;6119680;23;20511;-82
2023/05/20 01:39:45;;;;;;;2.90;2.60;;;11.90;1.00;;;;;;6119662;23;20198;-82
2023/05/20 01:42:12;;;;;;;3.23;2.60;;;12.00;1.00;;;;;;6119796;23;20167;-81
2023/05/20 01:44:38;;;;;;;2.53;2.30;;;12.00;1.00;;;;;;6119870;23;20234;-80
2023/05/20 01:47:04;;;;;;;2.60;2.40;;;12.00;1.00;;;;;;6119632;23;20160;-81
2023/05/20 01:49:29;;;;;;;3.17;2.88;;;12.00;1.00;;;;;;6120239;23;20180;-81
2023/05/20 01:51:56;;;;;;;3.03;2.30;;;12.10;1.00;;;;;;6145171;23;20151;-82
2023/05/20 01:54:22;;;;;;;2.83;2.13;;;12.10;1.00;;;;;;6119829;23;20174;-82
2023/05/20 01:56:48;;;;;;;2.90;2.50;;;12.10;1.00;;;;;;6119807;23;20576;-81
2023/05/20 01:59:14;;;;;;;3.00;2.70;;;12.10;1.00;;;;;;6146069;23;20179;-81
2023/05/20 02:01:39;;;;;;;2.50;2.20;;;12.00;1.00;;;;;;6145844;23;20158;-81
2023/05/20 02:04:05;;;;;;;3.60;2.57;;;12.00;1.00;;;;;;6119489;23;20187;-81
2023/05/20 02:06:30;;;;;;;4.18;2.60;;;12.00;1.00;;;;;;6120085;23;20156;-81
2023/05/20 02:08:56;;;;;;;3.03;2.28;;;12.00;1.00;;;;;;6119300;23;20183;-81
2023/05/20 02:11:22;;;;;;;4.17;2.90;;;11.90;1.00;;;;;;6146747;23;20596;-83
2023/05/20 02:13:49;;;;;;;2.87;2.50;;;11.90;1.00;;;;;;6119659;23;20167;-81
2023/05/20 02:16:14;;;;;;;2.77;2.40;;;11.90;1.00;;;;;;6119438;23;20166;-82
2023/05/20 02:18:41;;;;;;;3.40;2.93;;;11.90;1.00;;;;;;6119198;23;20183;-82
2023/05/20 02:21:06;;;;;;;3.70;2.97;;;11.90;1.00;;;;;;6119232;23;20164;-81
2023/05/20 02:23:33;;;;;;;4.10;3.00;;;11.90;1.00;;;;;;6145796;23;20187;-81
2023/05/20 02:25:58;;;;;;;6.37;2.60;;;11.80;1.00;;;;;;6119241;23;20478;-81
2023/05/20 02:28:24;;;;;;;3.23;2.47;;;11.90;1.00;;;;;;6119444;23;20226;-81
2023/05/20 02:30:50;;;;;;;3.23;2.93;;;11.90;1.00;;;;;;6145707;23;20199;-83
2023/05/20 02:33:16;;;;;;;4.03;2.43;;;11.90;1.00;;;;;;6119538;23;20164;-81
2023/05/20 02:35:41;;;;;;;3.23;2.93;;;11.90;1.00;;;;;;6119273;23;20635;-81
2023/05/20 02:38:07;;;;;;;3.83;2.80;;;11.90;1.00;;;;;;6119402;23;20175;-81
2023/05/20 02:40:33;;;;;;;4.57;2.80;;;11.80;1.00;;;;;;6145155;23;20191;-81
2023/05/20 02:42:59;;;;;;;3.77;2.87;;;11.90;1.00;;;;;;6119137;23;20210;-81
2023/05/20 02:45:24;;;;;;;3.20;2.87;;;11.90;1.00;;;;;;6145692;23;20230;-81
2023/05/20 02:47:50;;;;;;;4.77;2.80;;;11.90;1.00;;;;;;6144976;23;20147;-81
2023/05/20 02:50:15;;;;;;;5.47;2.97;;;11.90;1.00;;;;;;6119151;23;20211;-81
2023/05/20 02:52:41;;;;;;;3.20;2.93;;;11.90;1.00;;;;;;6118842;23;20171;-81
2023/05/20 02:55:08;;;;;;;3.87;2.83;;;11.80;1.00;;;;;;6145327;23;20158;-81
2023/05/20 02:57:36;;;;;;;3.03;2.30;;;11.80;1.00;;;;;;6145975;23;20182;-82
2023/05/20 03:00:04;;;;;;;3.13;2.73;;;11.80;1.00;;;;;;6118939;23;20190;-81
2023/05/20 03:02:30;;;;;;;3.63;2.87;;;11.80;1.00;;;;;;6118779;23;20170;-81
2023/05/20 03:04:55;;;;;;;4.20;2.67;;;11.80;1.00;;;;;;6144970;23;20179;-84
2023/05/20 03:07:21;;;;;;;3.10;2.80;;;11.80;1.00;;;;;;6144722;23;20183;-81
2023/05/20 03:09:47;;;;;;;3.33;2.83;;;11.90;1.00;;;;;;6119169;23;20183;-81
2023/05/20 03:12:13;;;;;;;4.03;2.90;;;11.80;1.00;;;;;;6119074;23;20168;-81
2023/05/20 03:14:38;;;;;;;3.90;2.50;;;11.80;1.00;;;;;;6119106;23;20182;-81
2023/05/20 03:17:04;;;;;;;5.73;3.20;;;11.70;1.00;;;;;;6144741;23;20156;-81
2023/05/20 03:19:30;;;;;;;3.93;3.23;;;11.80;1.00;;;;;;6145348;23;20540;-81
2023/05/20 03:21:56;;;;;;;4.50;2.90;;;11.80;1.00;;;;;;6144726;23;20594;-81
2023/05/20 03:24:22;;;;;;;2.77;2.50;;;11.70;1.00;;;;;;6144730;23;20183;-81
2023/05/20 03:26:48;;;;;;;4.70;2.73;;;11.70;1.00;;;;;;6118743;23;20170;-81
2023/05/20 03:29:15;;;;;;;4.03;3.10;;;11.70;1.00;;;;;;6144969;23;20616;-82
2023/05/20 03:31:40;;;;;;;4.00;3.00;;;11.70;1.00;;;;;;6118792;23;20160;-81
2023/05/20 03:34:07;;;;;;;3.00;2.70;;;11.70;1.00;;;;;;6144873;23;20160;-81
2023/05/20 03:36:32;;;;;;;5.00;3.47;;;11.70;1.00;;;;;;6119084;23;20646;-82
2023/05/20 03:38:58;;;;;;;4.53;3.17;;;11.70;1.00;;;;;;6144712;23;20179;-81
2023/05/20 03:41:23;;;;;;;3.10;2.80;;;11.70;1.00;;;;;;6118739;23;20194;-81
2023/05/20 03:43:49;;;;;;;4.03;3.03;;;11.70;1.00;;;;;;6118491;23;20187;-81
2023/05/20 03:46:14;;;;;;;3.17;2.87;;;11.70;1.00;;;;;;6118361;23;20160;-81
2023/05/20 03:48:40;;;;;;;4.77;3.77;;;11.80;1.00;;;;;;6118384;23;20644;-81
2023/05/20 03:51:06;;;;;;;3.90;3.50;;;11.80;1.00;;;;;;6118774;23;20164;-82
2023/05/20 03:53:31;;;;;;;5.60;3.67;;;11.80;1.00;;;;;;6145332;23;20168;-81
2023/05/20 03:55:57;;;;;;;5.07;3.13;;;11.90;1.00;;;;;;6145346;23;20870;-81
2023/05/20 03:58:22;;;;;;;3.60;3.30;;;11.90;1.00;;;;;;6118412;23;20168;-81
2023/05/20 04:00:48;;;;;;;5.30;2.80;;;11.80;1.00;;;;;;6144908;23;20160;-81
2023/05/20 04:03:14;;;;;;;5.00;3.13;;;11.90;1.00;;;;;;6145208;23;20151;-81
2023/05/20 04:05:40;;;;;;;4.60;3.33;;;11.80;1.00;;;;;;6118331;23;20588;-81
2023/05/20 04:08:06;;;;;;;4.10;3.20;;;11.80;1.00;;;;;;6145112;23;20202;-81
2023/05/20 04:10:32;;;;;;;7.13;3.63;;;11.50;1.00;;;;;;6118890;23;20612;-82
2023/05/20 04:12:58;;;;;;;4.47;3.20;;;11.70;1.00;;;;;;6144766;23;20178;-81
2023/05/20 04:15:24;;;;;;;3.90;3.50;;;11.70;1.00;;;;;;6145078;23;20664;-81
2023/05/20 04:17:51;;;;;;;5.63;3.77;;;11.70;1.00;;;;;;6144163;23;20166;-83
2023/05/20 04:20:17;;;;;;;6.30;3.63;;;11.70;1.00;;;;;;6118689;23;20187;-82
2023/05/20 04:22:43;;;;;;;5.73;3.80;;;11.70;1.00;;;;;;6145919;23;20229;-81
2023/05/20 04:25:09;;;;;;;4.13;3.70;;;11.70;1.00;;;;;;6118441;23;20211;-81
2023/05/20 04:27:36;;;;;;;4.07;3.67;;;12.00;1.00;;;;;;6144661;23;20159;-81
2023/05/20 04:30:02;;;;;;;5.93;3.87;;;11.70;1.00;;;;;;6118143;23;20179;-82
2023/05/20 04:32:29;;;;;;;4.93;3.63;;;11.70;1.00;;;;;;6118586;23;20166;-80
2023/05/20 04:34:58;;;;;;;5.37;4.07;;;11.60;1.00;;;;;;6118597;23;20250;-81
2023/05/20 04:37:24;;;;;;;5.40;4.23;;;11.60;1.00;;;;;;6144429;23;20253;-82
2023/05/20 04:39:49;;;;;;;5.17;4.30;;;11.60;1.00;;;;;;6144822;23;20176;-81
2023/05/20 04:42:20;;;;;;;4.40;4.00;;;11.70;1.00;;;;;;6144715;23;20156;-81
2023/05/20 04:44:46;;;;;;;5.37;4.33;;;11.70;1.00;;;;;;6144694;23;20516;-81
2023/05/20 04:47:13;;;;;;;5.80;4.00;;;11.60;1.00;;;;;;6144281;23;20460;-81
2023/05/20 04:49:38;;;;;;;6.00;4.10;;;11.70;1.00;;;;;;6118536;23;20176;-81
2023/05/20 04:52:04;;;;;;;6.93;4.80;;;11.60;1.00;;;;;;6144183;23;20227;-82
2023/05/20 04:54:31;;;;;;;4.73;4.23;;;11.60;1.00;;;;;;6118534;23;20183;-81
2023/05/20 04:56:57;;;;;;;8.27;4.67;;;11.60;1.00;;;;;;6118361;23;20516;-81
2023/05/20 04:59:23;;;;;;;5.27;4.73;;;11.70;1.00;;;;;;6118387;23;20192;-81
2023/05/20 05:01:49;;;;;;;5.83;5.13;;;11.60;1.00;;;;;;6144880;23;20904;-82
2023/05/20 05:04:14;;;;;;;7.43;5.30;;;11.70;1.00;;;;;;6118039;23;20180;-80
2023/05/20 05:06:40;;;;;;;6.53;5.20;;;11.70;1.00;;;;;;6118606;23;20206;-81
2023/05/20 05:09:06;;;;;;;9.00;6.00;;;11.70;1.00;;;;;;6118467;23;20176;-81
2023/05/20 05:11:32;;;;;;;7.07;6.37;;;11.70;1.00;;;;;;6118519;23;20188;-81
2023/05/20 05:13:58;;;;;;;7.07;6.37;;;11.70;1.00;;;;;;6144160;23;20499;-81
2023/05/20 05:16:24;;;;;;;7.87;6.27;;;11.70;1.00;;;;;;6144217;23;20343;-80
2023/05/20 05:18:49;;;;;;;7.63;6.90;;;11.70;1.00;;;;;;6144237;23;20630;-81
2023/05/20 05:21:15;;;;;;;6.40;5.70;;;11.70;1.00;;;;;;6118740;23;20171;-81
2023/05/20 05:23:44;;;;;;;7.73;5.83;;;11.80;1.00;;;;;;6144640;23;20183;-81
2023/05/20 05:26:09;;;;;;;6.50;5.88;;;11.80;1.00;;;;;;6118322;23;20160;-81
2023/05/20 05:28:35;;;;;;;6.23;5.53;;;11.90;1.00;;;;;;6145410;23;20183;-81
2023/05/20 05:31:01;;;;;;;8.17;6.37;;;11.90;1.00;;;;;;6146259;23;20532;-81
2023/05/20 05:33:27;;;;;;;8.53;6.30;;;11.90;1.00;;;;;;6145769;23;20156;-81
2023/05/20 05:35:52;;;;;;;7.63;6.60;;;11.90;1.00;;;;;;6119817;23;20186;-81
2023/05/20 05:38:18;;;;;;;7.50;6.30;;;11.90;1.00;;;;;;6119419;23;20620;-81
2023/05/20 05:40:43;;;;;;;7.90;6.90;;;11.90;1.00;;;;;;6119863;23;20198;-81
2023/05/20 05:43:10;;;;;;;6.65;5.95;;;12.00;1.00;;;;;;6119983;23;20270;-81
2023/05/20 05:45:36;;;;;;;6.60;5.97;;;12.00;1.00;;;;;;6146217;23;20639;-81
2023/05/20 05:48:01;;;;;;;7.47;6.43;;;12.10;1.00;;;;;;6119756;23;20540;-81
2023/05/20 05:50:27;;;;;;;7.50;6.75;;;12.10;1.00;;;;;;6120241;23;20564;-81
2023/05/20 05:52:53;;;;;;;7.20;6.50;;;12.10;1.00;;;;;;6119771;23;20167;-81
2023/05/20 05:55:18;;;;;;;7.07;6.38;;;12.10;1.00;;;;;;6120283;23;20163;-83
2023/05/20 05:57:44;;;;;;;8.93;7.27;;;12.10;1.00;;;;;;6119201;23;20165;-80
2023/05/20 06:00:10;;;;;;;8.97;6.90;;;12.20;1.00;;;;;;6145640;23;20202;-82
2023/05/20 06:02:36;;;;;;;8.10;6.00;;;12.20;1.00;;;;;;6119702;23;20164;-81
2023/05/20 06:05:02;;;;;;;7.95;6.38;;;12.20;1.00;;;;;;6119360;23;20206;-83
2023/05/20 06:07:28;;;;;;;6.93;5.80;;;12.30;1.00;;;;;;6119186;23;20160;-81
2023/05/20 06:09:53;;;;;;;7.43;6.30;;;12.30;1.00;;;;;;6119407;23;20238;-81
2023/05/20 06:12:19;;;;;;;7.53;5.88;;;12.30;1.00;;;;;;6145376;23;20494;-81
2023/05/20 06:14:45;;;;;;;7.03;6.05;;;12.30;1.00;;;;;;6119428;23;20226;-81
2023/05/20 06:17:10;;;;;;;7.63;6.55;;;12.30;1.00;;;;;;6119020;23;20203;-81
2023/05/20 06:19:36;;;;;;;7.40;6.53;;;12.30;1.00;;;;;;6119828;23;20184;-81
2023/05/20 06:22:01;;;;;;;7.53;6.70;;;12.30;1.00;;;;;;6145436;23;20156;-82
2023/05/20 06:24:27;;;;;;;8.18;6.72;;;13.20;1.00;;;;;;6119452;23;20191;-81
2023/05/20 06:26:52;;;;;;;7.37;6.67;;;12.30;1.00;;;;;;6145324;23;20421;-81
2023/05/20 06:29:18;;;;;;;6.73;6.13;;;12.30;1.00;;;;;;6119160;23;20203;-81
2023/05/20 06:31:44;;;;;;;8.57;6.60;;;12.40;1.00;;;;;;6145322;23;20156;-81
2023/05/20 06:34:09;;;;;;;7.50;6.70;;;12.50;1.00;;;;;;6145436;23;20619;-81
2023/05/20 06:36:35;;;;;;;7.63;6.50;;;12.50;1.00;;;;;;6145259;23;20168;-81
2023/05/20 06:39:01;;;;;;;8.27;6.70;;;12.50;1.00;;;;;;6119099;23;20578;-81
2023/05/20 06:41:26;;;;;;;7.23;6.30;;;12.50;1.00;;;;;;6119380;23;20545;-81
2023/05/20 06:43:52;;;;;;;6.97;6.28;;;12.60;1.00;;;;;;6145878;23;20539;-82
2023/05/20 06:46:17;;;;;;;6.65;5.95;;;12.60;1.00;;;;;;6119212;23;20151;-82
2023/05/20 06:48:43;;;;;;;6.43;5.82;;;12.70;1.00;;;;;;6145206;23;20176;-81
2023/05/20 06:51:08;;;;;;;8.57;6.93;;;12.70;1.00;;;;;;6145275;23;20274;-81
2023/05/20 06:53:35;;;;;;;7.50;6.60;;;12.80;1.00;;;;;;6145714;23;20156;-81
2023/05/20 06:56:00;;;;;;;7.53;6.22;;;12.90;1.00;;;;;;6119091;23;20174;-81
2023/05/20 06:58:27;;;;;;;7.65;6.70;;;12.90;1.00;;;;;;6118528;23;20168;-82
2023/05/20 07:00:53;;;;;;;7.35;6.57;;;13.00;1.00;;;;;;6118939;23;20562;-81
2023/05/20 07:03:19;;;;;;;8.50;6.88;;;13.00;1.00;;;;;;6118792;23;20183;-81
2023/05/20 07:05:44;;;;;;;7.20;6.55;;;13.00;1.00;;;;;;6119426;23;20187;-81
2023/05/20 07:08:10;;;;;;;8.73;7.43;;;13.10;1.00;;;;;;6145439;23;20179;-81
2023/05/20 07:10:36;;;;;;;8.30;6.75;;;13.00;1.00;;;;;;6118943;23;20180;-81
2023/05/20 07:13:02;;;;;;;7.20;6.60;;;13.00;1.00;;;;;;6145879;23;20156;-81
2023/05/20 07:15:27;;;;;;;7.30;6.60;;;13.00;1.00;;;;;;6119502;23;20511;-84
2023/05/20 07:17:53;;;;;;;8.13;7.30;;;13.00;1.00;;;;;;6118802;23;20615;-81
2023/05/20 07:20:19;;;;;;;8.05;7.25;;;13.00;1.00;;;;;;6144805;23;20577;-81
2023/05/20 07:22:45;;;;;;;8.55;7.45;;;13.00;1.00;;;;;;6119164;23;20201;-81
2023/05/20 07:25:10;;;;;;;8.40;7.35;;;12.90;1.00;;;;;;6118685;23;20226;-81
2023/05/20 07:27:36;;;;;;;9.30;6.85;;;12.90;1.00;;;;;;6144900;23;20152;-81
2023/05/20 07:30:02;;;;;;;7.88;6.78;;;13.10;1.00;;;;;;6118675;23;20180;-81
2023/05/20 07:32:28;;;;;;;8.30;7.10;;;12.80;1.00;;;;;;6145350;23;20155;-81
2023/05/20 07:34:53;;;;;;;8.38;7.47;;;13.00;1.00;;;;;;6145985;23;20218;-81
2023/05/20 07:37:19;;;;;;;8.13;7.10;;;12.80;1.00;;;;;;6144932;23;20211;-80
2023/05/20 07:39:44;;;;;;;8.27;7.20;;;12.80;1.00;;;;;;6144689;23;20712;-81
2023/05/20 07:42:10;;;;;;;8.70;7.28;;;12.80;1.00;;;;;;6118747;23;20437;-81
2023/05/20 07:44:35;;;;;;;8.15;7.35;;;12.80;1.00;;;;;;6119828;23;20187;-81
2023/05/20 07:47:01;;;;;;;9.60;7.55;;;13.60;1.00;;;;;;6144915;23;20162;-81
2023/05/20 07:49:27;;;;;;;8.95;7.90;;;12.90;1.00;;;;;;6118452;23;20179;-81
2023/05/20 07:51:52;;;;;;;9.02;7.78;;;12.90;1.00;;;;;;6118253;23;20447;-81
2023/05/20 07:54:18;;;;;;;8.15;7.30;;;13.00;1.00;;;;;;6145341;23;20159;-81
2023/05/20 07:56:44;;;;;;;8.95;7.78;;;13.10;1.00;;;;;;6145337;23;20210;-81
2023/05/20 07:59:09;;;;;;;8.45;7.65;;;13.30;1.00;;;;;;6118693;23;20180;-82
2023/05/20 08:01:35;;;;;;;8.35;7.65;;;13.50;1.00;;;;;;6118698;23;20214;-81
2023/05/20 08:04:01;;;;;;;9.60;8.20;;;13.80;1.00;;;;;;6119135;23;20194;-81
2023/05/20 08:06:27;;;;;;;7.80;7.10;;;14.00;1.00;;;;;;6119507;23;20159;-81
2023/05/20 08:08:53;;;;;;;7.35;6.65;;;14.40;1.00;;;;;;6118829;23;20187;-82
2023/05/20 08:11:20;;;;;;;8.15;7.35;;;14.60;1.00;;;;;;6118253;23;20160;-81
2023/05/20 08:13:46;;;;;;;7.95;7.15;;;14.50;1.00;;;;;;6144413;23;20156;-81
2023/05/20 08:16:11;;;;;;;8.15;7.07;;;14.40;1.00;;;;;;6145345;23;20178;-81
2023/05/20 08:18:37;;;;;;;8.35;7.05;;;14.30;1.00;;;;;;6144794;23;20171;-81
2023/05/20 08:21:06;;;;;;;9.90;7.63;;;14.40;1.00;;;;;;6144554;23;20170;-81
2023/05/20 08:23:32;;;;;;;7.35;6.57;;;14.30;1.00;;;;;;6118360;23;20159;-81
2023/05/20 08:26:01;;;;;;;7.45;6.55;;;15.10;1.00;;;;;;6145050;23;20163;-82
2023/05/20 08:28:27;;;;;;;7.82;7.00;;;14.80;1.00;;;;;;6145152;23;20159;-81
2023/05/20 08:30:52;;;;;;;7.78;6.22;;;15.10;1.00;;;;;;6145104;23;20171;-82
2023/05/20 08:33:20;;;;;;;6.18;5.57;;;15.10;1.00;;;;;;6144665;23;20147;-84
2023/05/20 08:35:46;;;;;;;6.35;5.75;;;15.30;1.00;;;;;;6145215;23;20931;-82
2023/05/20 08:38:11;;;;;;;6.65;5.50;;;15.10;1.00;;;;;;6144463;23;20167;-82
2023/05/20 08:40:37;;;;;;;7.65;5.80;;;16.00;1.00;;;;;;6144610;23;20171;-81
2023/05/20 08:43:03;;;;;;;6.35;5.72;;;15.80;1.00;;;;;;6144584;23;20479;-82
2023/05/20 08:45:31;;;;;;;6.07;5.47;;;15.70;1.00;;;;;;6118190;23;20278;-81
2023/05/20 08:47:57;;;;;;;7.43;5.38;;;15.60;1.00;;;;;;6118323;23;20744;-81
2023/05/20 08:50:23;;;;;;;6.95;5.25;;;15.40;1.00;;;;;;6118831;23;20183;-82
2023/05/20 08:52:48;;;;;;;6.30;5.47;;;15.20;1.00;;;;;;6144402;23;20156;-81
2023/05/20 08:55:51;;;;;;;6.40;5.53;;;15.10;1.00;;;;;;6118462;23;20195;-81
2023/05/20 08:58:18;;;;;;;6.00;5.40;;;15.10;1.00;;;;;;6073461;23;20167;-81
2023/05/20 09:00:43;;;;;;;6.97;5.10;;;15.30;1.00;;;;;;6144842;23;20164;-81
2023/05/20 09:03:09;;;;;;;6.68;5.13;;;15.30;1.00;;;;;;6146831;23;20164;-81
2023/05/20 09:05:34;;;;;;;5.15;4.65;;;15.30;1.00;;;;;;6146370;23;20180;-81
2023/05/20 09:08:05;;;;;;;5.75;4.97;;;15.50;1.00;;;;;;6120227;23;20160;-84
2023/05/20 09:10:32;;;;;;;5.13;4.63;;;16.20;1.00;;;;;;6119968;23;20179;-81
2023/05/20 09:13:00;;;;;;;5.20;4.80;;;15.80;1.00;;;;;;6120067;23;20160;-81
2023/05/20 09:15:25;;;;;;;5.00;4.57;;;15.90;1.00;;;;;;6146752;23;20163;-82
2023/05/20 09:17:51;;;;;;;4.80;4.40;;;16.00;1.00;;;;;;6146436;23;20160;-81
2023/05/20 09:20:17;;;;;;;4.60;4.20;;;16.80;1.00;;;;;;6120206;23;20652;-82
2023/05/20 09:22:42;;;;;;;5.63;4.53;;;16.40;1.00;;;;;;6146307;23;20463;-82
2023/05/20 09:25:11;;;;;;;5.35;4.85;;;16.80;1.00;;;;;;6119658;23;20416;-81
2023/05/20 09:27:36;;;;;;;6.78;4.82;;;17.40;1.00;;;;;;6119745;23;20168;-81
2023/05/20 09:30:06;;;;;;;5.32;4.25;;;16.70;1.00;;;;;;6146005;23;20949;-81
2023/05/20 09:32:31;;;;;;;5.65;4.38;;;16.50;1.00;;;;;;6119577;23;20203;-82
2023/05/20 09:34:57;;;;;;;6.93;4.53;;;16.60;1.00;;;;;;6119950;23;20535;-82
2023/05/20 09:37:26;;;;;;;4.68;4.20;;;16.40;1.00;;;;;;6145365;23;20230;-82
2023/05/20 09:39:56;;;;;;;6.03;4.50;;;17.20;1.00;;;;;;6119363;23;20187;-82
2023/05/20 09:42:27;;;;;;;4.70;4.22;;;16.40;1.00;;;;;;6119581;23;20626;-82
2023/05/20 09:44:55;;;;;;;5.72;4.18;;;16.40;1.00;;;;;;6119840;23;20226;-82
2023/05/20 09:47:22;;;;;;;6.18;5.03;;;16.00;1.00;;;;;;6145312;23;20175;-82
2023/05/20 09:49:51;;;;;;;7.35;5.78;;;15.90;1.00;;;;;;6146145;23;20175;-81
2023/05/20 09:52:17;;;;;;;6.85;6.03;;;16.20;1.00;;;;;;6146137;23;20604;-81
2023/05/20 09:54:43;;;;;;;8.35;6.70;;;15.90;1.00;;;;;;6120207;23;20163;-81
2023/05/20 09:57:09;;;;;;;6.95;5.85;;;16.00;1.00;;;;;;6146089;23;20229;-82
2023/05/20 09:59:37;;;;;;;6.18;5.57;;;16.80;1.00;;;;;;6119424;23;20259;-81
2023/05/20 10:02:04;;;;;;;6.50;5.32;;;16.30;1.00;;;;;;6146416;23;20156;-80
2023/05/20 10:04:33;;;;;;;6.40;5.75;;;16.30;1.00;;;;;;6145529;23;20183;-82
2023/05/20 10:07:21;;;;;;;6.40;5.78;;;16.30;1.00;;;;;;6119669;23;20223;-82
2023/05/20 10:10:14;;;;;;;6.55;5.70;;;16.50;1.00;;;;;;6118925;23;20502;-82
2023/05/20 10:12:58;;;;;;;7.75;6.80;;;16.50;1.00;;;;;;6145634;23;20151;-82
2023/05/20 10:15:59;;;;;;;9.30;6.80;;;16.60;1.00;;;;;;6119592;23;20291;-82
2023/05/20 10:18:51;;;;;;;7.30;6.47;;;16.60;1.00;;;;;;6051895;23;20393;-81
2023/05/20 10:21:24;;;;;;;6.60;6.00;;;16.90;1.00;;;;;;6118920;23;20247;-82
2023/05/20 10:23:50;;;;;;;8.43;6.45;;;17.10;1.00;;;;;;6119114;23;20686;-81
2023/05/20 10:26:16;;;;;;;6.55;5.95;;;17.10;1.00;;;;;;6119270;23;20163;-82
2023/05/20 10:28:42;;;;;;;8.75;6.78;;;17.30;1.00;;;;;;6145244;23;20182;-82
2023/05/20 10:31:20;;;;;;;6.85;6.25;;;17.10;1.00;;;;;;6145472;23;20155;-81
2023/05/20 10:33:46;;;;;;;6.75;5.97;;;17.30;1.00;;;;;;6119047;23;20619;-81
2023/05/20 10:36:30;;;;;;;6.88;6.28;;;17.20;1.00;;;;;;6119001;23;20650;-81
2023/05/20 10:38:58;;;;;;;7.80;6.43;;;16.70;1.00;;;;;;6118815;23;20183;-82
2023/05/20 10:41:27;;;;;;;8.30;6.20;;;16.60;1.00;;;;;;6145274;23;20507;-82
2023/05/20 10:44:02;;;;;;;6.38;5.78;;;16.50;1.00;;;;;;6145191;23;20183;-82
2023/05/20 10:46:32;;;;;;;6.32;5.72;;;16.50;1.00;;;;;;6145607;23;20609;-81
2023/05/20 10:48:58;;;;;;;5.80;5.20;;;16.50;1.00;;;;;;6119018;23;20185;-81
2023/05/20 10:51:27;;;;;;;6.35;5.72;;;16.70;1.00;;;;;;6118818;23;20190;-81
2023/05/20 10:53:54;;;;;;;7.15;5.70;;;16.80;1.00;;;;;;6145097;23;20613;-81
2023/05/20 10:56:22;;;;;;;6.68;5.68;;;17.00;1.00;;;;;;6119548;23;20156;-82
2023/05/20 10:58:48;;;;;;;10.27;5.78;;;17.40;1.00;;;;;;6118686;23;20184;-81
2023/05/20 11:01:15;;;;;;;6.40;5.13;;;17.30;1.00;;;;;;6119031;23;20398;-81
2023/05/20 11:03:43;;;;;;;5.75;4.97;;;17.50;1.00;;;;;;6118984;23;20445;-81
2023/05/20 11:06:18;;;;;;;6.28;5.38;;;16.70;1.00;;;;;;6145097;23;20191;-81
2023/05/20 11:08:44;;;;;;;6.15;4.93;;;16.50;1.00;;;;;;6118515;23;20269;-83
2023/05/20 11:11:11;;;;;;;5.97;5.38;;;16.50;1.00;;;;;;6119028;23;20163;-82
2023/05/20 11:13:36;;;;;;;6.18;5.57;;;16.40;1.00;;;;;;6144887;23;20156;-82
2023/05/20 11:16:03;;;;;;;6.65;5.57;;;16.30;1.00;;;;;;6145169;23;20555;-81
2023/05/20 11:18:29;;;;;;;6.18;5.57;;;16.10;1.00;;;;;;6118758;23;20560;-82
2023/05/20 11:20:59;;;;;;;6.97;5.72;;;16.40;1.00;;;;;;6118656;23;20616;-81
2023/05/20 11:23:26;;;;;;;6.13;5.53;;;16.00;1.00;;;;;;6118627;23;20159;-81
2023/05/20 11:25:53;;;;;;;8.25;5.63;;;16.00;1.00;;;;;;6144895;23;20231;-81
2023/05/20 11:28:22;;;;;;;6.20;5.60;;;15.90;1.00;;;;;;6118238;23;20179;-81
2023/05/20 11:30:50;;;;;;;7.05;5.85;;;16.00;1.00;;;;;;6118092;23;20210;-81
2023/05/20 11:33:17;;;;;;;6.22;5.38;;;16.40;1.00;;;;;;6118472;23;20698;-82
2023/05/20 11:35:45;;;;;;;6.82;6.13;;;16.60;1.00;;;;;;6118506;23;20178;-82
2023/05/20 11:38:10;;;;;;;6.10;5.45;;;16.80;1.00;;;;;;6144334;23;20739;-82
2023/05/20 11:40:36;;;;;;;7.20;6.07;;;16.70;1.00;;;;;;6118446;23;20207;-82
2023/05/20 11:43:03;;;;;;;6.97;6.07;;;17.00;1.00;;;;;;6118595;23;20190;-82
2023/05/20 11:45:39;;;;;;;6.28;5.68;;;16.50;1.00;;;;;;6118071;23;20238;-82
2023/05/20 11:48:05;;;;;;;6.70;5.85;;;16.20;1.00;;;;;;6118231;23;20144;-82
2023/05/20 11:50:49;;;;;;;7.97;6.85;;;16.20;1.00;;;;;;6144519;23;20833;-82
2023/05/20 11:53:16;;;;;;;7.28;6.40;;;16.20;1.00;;;;;;6118535;23;20156;-81
2023/05/20 11:55:45;;;;;;;7.95;6.47;;;16.20;1.00;;;;;;6118699;23;20167;-82
2023/05/20 11:58:18;;;;;;;8.10;6.95;;;16.40;1.00;;;;;;6144324;23;20563;-82
2023/05/20 12:00:43;;;;;;;7.25;6.20;;;16.40;1.00;;;;;;6118182;23;20668;-81
2023/05/20 12:03:10;;;;;;;7.00;6.30;;;16.50;1.00;;;;;;6118219;23;20679;-82
2023/05/20 12:05:36;;;;;;;7.25;6.55;;;16.60;1.00;;;;;;6144515;23;20183;-81
2023/05/20 12:08:02;;;;;;;7.25;6.28;;;16.70;1.00;;;;;;6144363;23;20499;-81
2023/05/20 12:10:28;;;;;;;7.63;6.32;;;16.80;1.00;;;;;;6144298;23;20327;-81
2023/05/20 12:12:54;;;;;;;8.82;6.60;;;16.80;1.00;;;;;;6144314;23;20178;-81
2023/05/20 12:15:19;;;;;;;6.43;5.82;;;17.40;1.00;;;;;;6118194;23;20163;-81
2023/05/20 12:17:47;;;;;;;6.88;6.00;;;17.30;1.00;;;;;;6144574;23;20155;-81
2023/05/20 12:20:15;;;;;;;7.10;5.30;;;17.20;1.00;;;;;;6118685;23;20187;-81
2023/05/20 12:22:42;;;;;;;6.45;5.82;;;17.00;1.00;;;;;;6118346;23;20191;-81
2023/05/20 12:25:10;;;;;;;6.57;5.45;;;17.00;1.00;;;;;;6118924;23;20578;-81
2023/05/20 12:27:35;;;;;;;6.35;5.75;;;17.20;1.00;;;;;;6118740;23;20242;-82
2023/05/20 12:30:01;;;;;;;5.97;5.45;;;17.30;1.00;;;;;;6144939;23;20187;-82
2023/05/20 12:32:26;;;;;;;6.65;5.95;;;17.20;1.00;;;;;;6144666;23;20660;-82
2023/05/20 12:34:52;;;;;;;6.10;5.50;;;17.80;1.00;;;;;;6145129;23;20159;-82
2023/05/20 12:37:17;;;;;;;6.13;5.53;;;17.90;1.00;;;;;;6146467;23;20203;-82
2023/05/20 12:39:43;;;;;;;6.13;5.53;;;18.00;1.00;;;;;;6146388;23;20179;-82
2023/05/20 12:42:08;;;;;;;6.82;5.60;;;17.30;1.00;;;;;;6120284;23;20506;-81
2023/05/20 12:44:34;;;;;;;6.20;5.60;;;17.20;1.00;;;;;;6120399;23;20183;-81
2023/05/20 12:47:00;;;;;;;6.50;5.82;;;17.30;1.00;;;;;;6146957;23;20190;-81
2023/05/20 12:49:25;;;;;;;6.70;5.93;;;17.70;1.00;;;;;;6120101;23;20181;-81
2023/05/20 12:51:51;;;;;;;7.05;5.93;;;17.40;1.00;;;;;;6120319;23;20198;-82
2023/05/20 12:54:16;;;;;;;6.20;5.57;;;17.40;1.00;;;;;;6120426;23;20206;-81
2023/05/20 12:56:46;;;;;;;6.68;5.97;;;17.50;1.00;;;;;;6146185;23;20243;-81